Time;durP1;ratioP1;P1;durP2;ratioP2;P2;SDS_P1;SDS_P2;PMS_P1;PMS_P2;Temp;Humidity;BMP_temperature;BMP_pressure;BME280_temperature;BME280_humidity;BME280_pressure;Samples;Min_cycle;Max_cycle;Signal;HPM_P1;HPM_P2
2023/09/11 00:02:21;;;;;;;23.08;18.50;;;20.10;99.90;;;;;;5053311;28;20051;-66
2023/09/11 00:04:47;;;;;;;31.10;19.25;;;20.00;99.90;;;;;;5052069;28;20047;-65
2023/09/11 00:07:14;;;;;;;24.52;19.05;;;20.10;99.90;;;;;;5035918;28;20036;-65
2023/09/11 00:09:40;;;;;;;25.40;18.60;;;20.10;99.90;;;;;;5052366;28;20519;-65
2023/09/11 00:12:06;;;;;;;26.77;18.77;;;20.10;99.90;;;;;;5051979;28;20084;-65
2023/09/11 00:14:32;;;;;;;27.30;17.58;;;20.10;99.90;;;;;;5035311;28;20076;-65
2023/09/11 00:16:58;;;;;;;25.38;18.13;;;20.00;99.90;;;;;;5035395;28;20041;-65
2023/09/11 00:19:27;;;;;;;26.88;18.70;;;20.10;99.90;;;;;;5051780;28;20489;-65
2023/09/11 00:21:53;;;;;;;26.30;17.23;;;20.10;99.90;;;;;;5019177;28;20041;-65
2023/09/11 00:24:18;;;;;;;24.08;17.70;;;20.00;99.90;;;;;;5018817;28;20044;-64
2023/09/11 00:26:44;;;;;;;25.08;17.88;;;20.00;99.90;;;;;;5051976;28;20090;-65
2023/09/11 00:29:10;;;;;;;27.23;18.98;;;20.00;99.90;;;;;;5051951;28;20076;-65
2023/09/11 00:31:36;;;;;;;25.75;18.73;;;20.00;99.90;;;;;;5052080;28;20431;-64
2023/09/11 00:34:01;;;;;;;27.95;17.90;;;19.90;99.90;;;;;;5051787;28;20056;-65
2023/09/11 00:36:27;;;;;;;29.27;18.55;;;19.90;99.90;;;;;;5051690;28;20405;-64
2023/09/11 00:38:53;;;;;;;25.15;17.42;;;19.90;99.90;;;;;;5034957;28;20080;-65
2023/09/11 00:41:19;;;;;;;26.85;17.48;;;19.80;99.90;;;;;;5051661;28;20147;-64
2023/09/11 00:43:44;;;;;;;25.52;17.25;;;19.80;99.90;;;;;;5035317;28;20048;-64
2023/09/11 00:46:10;;;;;;;26.23;18.23;;;19.70;99.90;;;;;;5035227;28;20041;-64
2023/09/11 00:48:36;;;;;;;24.70;17.75;;;19.70;99.90;;;;;;5051579;28;20090;-65
2023/09/11 00:51:03;;;;;;;23.02;16.10;;;19.70;99.90;;;;;;5018401;28;20099;-64
2023/09/11 00:53:29;;;;;;;26.25;17.58;;;19.70;99.90;;;;;;5018624;28;20045;-64
2023/09/11 00:55:54;;;;;;;23.52;16.95;;;19.70;99.90;;;;;;5051652;28;20039;-64
2023/09/11 00:58:22;;;;;;;23.58;17.35;;;19.60;99.90;;;;;;5035030;28;20072;-65
2023/09/11 01:00:48;;;;;;;26.25;17.38;;;19.60;99.90;;;;;;5051612;28;20040;-70
2023/09/11 01:03:15;;;;;;;25.42;18.05;;;19.60;99.90;;;;;;5051912;28;20497;-68
2023/09/11 01:05:42;;;;;;;29.63;19.23;;;19.60;99.90;;;;;;5035086;28;20041;-70
2023/09/11 01:08:08;;;;;;;26.88;18.13;;;19.60;99.90;;;;;;5052604;28;20123;-70
2023/09/11 01:10:35;;;;;;;24.95;17.98;;;19.60;99.90;;;;;;5051542;28;20040;-69
2023/09/11 01:13:02;;;;;;;26.70;18.52;;;19.60;99.90;;;;;;5051000;28;20045;-70
2023/09/11 01:15:34;;;;;;;25.02;19.85;;;19.60;99.90;;;;;;5034788;28;20044;-69
2023/09/11 01:18:42;;;;;;;24.55;17.48;;;19.50;99.90;;;;;;5052523;28;20112;-69
2023/09/11 01:21:41;;;;;;;25.10;18.15;;;19.50;99.90;;;;;;5022962;28;20090;-70
2023/09/11 01:24:41;;;;;;;24.95;19.00;;;19.50;99.90;;;;;;5027336;28;20041;-70
2023/09/11 01:27:37;;;;;;;24.85;19.02;;;19.40;99.90;;;;;;5051283;28;20122;-70
2023/09/11 01:30:05;;;;;;;26.27;18.63;;;19.50;99.90;;;;;;5034505;28;20036;-69
2023/09/11 01:32:32;;;;;;;27.58;19.45;;;19.50;99.90;;;;;;5051166;28;20390;-69
2023/09/11 01:34:58;;;;;;;25.90;19.23;;;19.50;99.90;;;;;;5034560;28;20055;-70
2023/09/11 01:37:24;;;;;;;24.30;19.65;;;19.50;99.90;;;;;;5051332;28;20124;-70
2023/09/11 01:39:50;;;;;;;23.35;18.25;;;19.50;99.90;;;;;;5053468;28;20037;-70
2023/09/11 01:42:23;;;;;;;27.17;19.63;;;19.40;99.90;;;;;;5055025;28;20374;-69
2023/09/11 01:44:50;;;;;;;29.35;19.42;;;19.40;99.90;;;;;;5038304;28;20044;-68
2023/09/11 01:47:22;;;;;;;24.70;19.23;;;19.40;99.90;;;;;;5056107;28;20083;-70
2023/09/11 01:49:49;;;;;;;22.73;16.05;;;19.40;99.90;;;;;;5054956;28;20543;-70
2023/09/11 01:52:16;;;;;;;27.00;19.27;;;19.30;99.90;;;;;;5054641;28;20087;-69
2023/09/11 01:54:43;;;;;;;20.55;15.02;;;19.30;99.90;;;;;;5054617;28;20044;-69
2023/09/11 01:57:09;;;;;;;25.60;18.48;;;19.30;99.90;;;;;;5054527;28;20053;-70
2023/09/11 01:59:35;;;;;;;25.92;18.98;;;19.30;99.90;;;;;;5038229;28;20514;-70
2023/09/11 02:02:01;;;;;;;27.92;18.17;;;19.20;99.90;;;;;;5037840;28;20124;-70
2023/09/11 02:04:27;;;;;;;21.35;16.48;;;19.20;99.90;;;;;;5055554;28;20040;-71
2023/09/11 02:06:53;;;;;;;20.90;14.70;;;19.20;99.90;;;;;;5054685;28;20037;-70
2023/09/11 02:09:18;;;;;;;24.67;18.17;;;19.20;99.90;;;;;;5055492;28;20047;-70
2023/09/11 02:11:44;;;;;;;21.00;16.98;;;19.20;99.90;;;;;;5037793;28;20119;-69
2023/09/11 02:14:10;;;;;;;23.58;18.38;;;19.20;99.90;;;;;;5037876;28;20041;-69
2023/09/11 02:16:36;;;;;;;28.88;18.58;;;19.20;99.90;;;;;;5021325;28;20041;-69
2023/09/11 02:19:02;;;;;;;24.13;17.58;;;19.20;99.90;;;;;;5037769;28;20048;-69
2023/09/11 02:21:28;;;;;;;24.92;17.67;;;19.30;99.90;;;;;;5054249;28;20037;-71
2023/09/11 02:23:53;;;;;;;24.55;16.83;;;19.30;99.90;;;;;;5054370;28;20135;-70
2023/09/11 02:26:20;;;;;;;22.13;16.83;;;19.30;99.90;;;;;;5053860;28;20048;-70
2023/09/11 02:28:45;;;;;;;23.20;16.25;;;19.30;99.90;;;;;;5053851;28;20099;-71
2023/09/11 02:31:11;;;;;;;23.48;17.30;;;19.30;99.90;;;;;;5053668;28;20041;-70
2023/09/11 02:33:37;;;;;;;23.50;16.77;;;19.40;99.90;;;;;;5053595;28;20497;-69
2023/09/11 02:36:03;;;;;;;21.42;15.68;;;19.30;99.90;;;;;;5020949;28;20488;-70
2023/09/11 02:38:29;;;;;;;25.40;16.60;;;19.30;99.90;;;;;;5054912;28;20045;-70
2023/09/11 02:40:55;;;;;;;22.50;16.52;;;19.40;99.90;;;;;;5020674;28;20119;-70
2023/09/11 02:43:21;;;;;;;27.85;16.20;;;19.30;99.90;;;;;;5053774;28;20567;-70
2023/09/11 02:45:47;;;;;;;25.50;16.85;;;19.30;99.90;;;;;;5020878;28;20124;-70
2023/09/11 02:48:12;;;;;;;24.45;16.70;;;19.30;99.90;;;;;;5053525;28;20049;-70
2023/09/11 02:50:38;;;;;;;22.40;15.43;;;19.30;99.90;;;;;;5020489;28;20073;-70
2023/09/11 02:53:13;;;;;;;22.55;16.40;;;19.30;99.90;;;;;;5020269;28;20045;-70
2023/09/11 02:55:42;;;;;;;24.52;16.08;;;19.30;99.90;;;;;;5037151;28;20037;-69
2023/09/11 02:58:08;;;;;;;24.75;16.63;;;19.40;99.90;;;;;;5053502;28;20378;-71
2023/09/11 03:00:35;;;;;;;22.83;15.52;;;19.40;99.90;;;;;;5036703;28;20044;-70
2023/09/11 03:03:03;;;;;;;22.48;15.45;;;19.40;99.90;;;;;;5036587;28;20058;-71
2023/09/11 03:05:32;;;;;;;25.67;15.45;;;19.40;99.90;;;;;;5053507;28;20547;-69
2023/09/11 03:07:59;;;;;;;21.35;14.63;;;19.40;99.90;;;;;;5053231;28;20044;-70
2023/09/11 03:10:26;;;;;;;23.48;15.63;;;19.40;99.90;;;;;;5053443;28;20040;-70
2023/09/11 03:12:52;;;;;;;24.52;16.45;;;19.40;99.90;;;;;;5052955;28;20053;-69
2023/09/11 03:15:18;;;;;;;24.95;16.88;;;19.40;99.90;;;;;;5053205;28;20037;-70
2023/09/11 03:17:49;;;;;;;21.88;14.38;;;19.40;99.90;;;;;;5053182;28;20158;-69
2023/09/11 03:20:15;;;;;;;24.20;18.10;;;19.30;99.90;;;;;;5053171;28;20080;-68
2023/09/11 03:22:40;;;;;;;26.35;17.98;;;19.30;99.90;;;;;;5055269;28;20528;-68
2023/09/11 03:25:07;;;;;;;24.20;17.83;;;19.20;99.90;;;;;;5053808;28;20409;-68
2023/09/11 03:27:32;;;;;;;27.80;20.08;;;19.10;99.90;;;;;;5037143;28;20045;-69
2023/09/11 03:29:58;;;;;;;24.63;18.00;;;19.00;99.90;;;;;;5053506;28;20143;-69
2023/09/11 03:32:24;;;;;;;28.05;18.48;;;19.00;99.90;;;;;;5052781;28;20477;-69
2023/09/11 03:34:53;;;;;;;27.05;16.95;;;19.00;99.90;;;;;;5053248;28;20051;-70
2023/09/11 03:37:20;;;;;;;25.60;17.40;;;19.00;99.90;;;;;;5052793;28;20049;-68
2023/09/11 03:39:46;;;;;;;26.05;17.55;;;19.00;99.90;;;;;;5036430;28;20102;-69
2023/09/11 03:42:12;;;;;;;24.73;16.95;;;19.00;99.90;;;;;;5036026;28;20041;-69
2023/09/11 03:44:38;;;;;;;21.95;15.30;;;19.00;99.90;;;;;;5036178;28;20040;-69
2023/09/11 03:47:03;;;;;;;24.15;17.35;;;19.00;99.90;;;;;;5036204;28;20045;-69
2023/09/11 03:49:30;;;;;;;23.63;18.13;;;19.00;99.90;;;;;;5054008;28;20033;-70
2023/09/11 03:51:55;;;;;;;27.60;19.52;;;18.90;99.90;;;;;;5053881;28;20036;-68
2023/09/11 03:54:21;;;;;;;26.98;17.75;;;18.90;99.90;;;;;;5052545;28;20443;-69
2023/09/11 03:56:47;;;;;;;17.88;13.07;;;18.80;99.90;;;;;;5035837;28;20064;-69
2023/09/11 03:59:13;;;;;;;19.02;13.43;;;18.80;99.90;;;;;;5035598;28;20485;-69
2023/09/11 04:01:39;;;;;;;26.35;18.85;;;18.80;99.90;;;;;;5052955;28;20078;-69
2023/09/11 04:04:05;;;;;;;33.63;21.52;;;18.90;99.90;;;;;;5036071;28;20048;-70
2023/09/11 04:06:31;;;;;;;21.90;15.23;;;18.80;99.90;;;;;;5052479;28;20041;-70
2023/09/11 04:08:57;;;;;;;24.02;15.27;;;18.80;99.90;;;;;;5019104;28;20076;-68
2023/09/11 04:11:23;;;;;;;25.30;16.10;;;18.70;99.90;;;;;;5052120;28;20060;-70
2023/09/11 04:13:49;;;;;;;28.27;17.98;;;18.70;99.90;;;;;;5052179;28;20439;-69
2023/09/11 04:16:15;;;;;;;23.00;16.05;;;18.80;99.90;;;;;;5053401;28;20485;-69
2023/09/11 04:18:42;;;;;;;19.60;12.98;;;18.70;99.90;;;;;;5053201;28;20043;-68
2023/09/11 04:21:08;;;;;;;18.00;13.07;;;18.70;99.90;;;;;;5053201;28;20037;-69
2023/09/11 04:23:34;;;;;;;25.02;18.10;;;18.70;99.90;;;;;;5052857;28;20124;-69
2023/09/11 04:26:00;;;;;;;21.33;15.25;;;18.80;99.90;;;;;;5053202;28;20076;-68
2023/09/11 04:28:26;;;;;;;19.75;14.85;;;18.80;99.90;;;;;;5052851;28;20087;-68
2023/09/11 04:30:52;;;;;;;24.13;16.90;;;18.70;99.90;;;;;;5054411;28;20029;-69
2023/09/11 04:33:18;;;;;;;29.27;19.83;;;18.70;99.90;;;;;;5036681;28;20106;-69
2023/09/11 04:35:45;;;;;;;33.40;20.65;;;18.80;99.90;;;;;;5053806;28;20048;-69
2023/09/11 04:38:10;;;;;;;29.92;20.88;;;18.70;99.90;;;;;;5052818;28;20041;-69
2023/09/11 04:40:37;;;;;;;29.58;19.95;;;18.70;99.90;;;;;;5052537;28;20192;-68
2023/09/11 04:43:02;;;;;;;30.70;20.88;;;18.60;99.90;;;;;;5052624;28;20049;-68
2023/09/11 04:45:28;;;;;;;29.42;19.75;;;18.60;99.90;;;;;;5052228;28;20117;-70
2023/09/11 04:47:54;;;;;;;27.05;18.02;;;18.50;99.90;;;;;;5018897;28;20105;-71
2023/09/11 04:50:20;;;;;;;24.48;18.40;;;18.60;99.90;;;;;;5052299;28;20068;-69
2023/09/11 04:52:46;;;;;;;18.75;13.13;;;18.50;99.90;;;;;;5051679;28;20064;-70
2023/09/11 04:55:12;;;;;;;22.58;17.00;;;18.50;99.90;;;;;;5051725;28;20079;-70
2023/09/11 04:57:39;;;;;;;28.23;17.90;;;18.50;99.90;;;;;;5035132;28;20044;-69
2023/09/11 05:00:10;;;;;;;31.25;19.92;;;18.50;99.90;;;;;;5051722;28;20045;-69
2023/09/11 05:02:36;;;;;;;31.48;21.50;;;18.60;99.90;;;;;;5052382;28;20080;-70
2023/09/11 05:05:05;;;;;;;28.15;20.10;;;18.70;99.90;;;;;;5051879;28;20029;-70
2023/09/11 05:07:31;;;;;;;24.25;18.25;;;18.60;99.90;;;;;;5051638;28;20041;-70
2023/09/11 05:09:57;;;;;;;30.13;22.08;;;18.50;99.90;;;;;;5051725;28;20060;-70
2023/09/11 05:12:23;;;;;;;29.95;20.88;;;18.50;99.90;;;;;;5051720;28;20046;-69
2023/09/11 05:14:48;;;;;;;32.13;22.30;;;18.40;99.90;;;;;;5054029;28;20443;-69
2023/09/11 05:17:14;;;;;;;27.73;20.70;;;18.40;99.90;;;;;;5038817;28;20051;-70
2023/09/11 05:19:40;;;;;;;30.60;20.83;;;18.30;99.90;;;;;;5039001;28;20079;-69
2023/09/11 05:22:08;;;;;;;31.75;21.88;;;18.30;99.90;;;;;;5056645;28;20127;-70
2023/09/11 05:24:33;;;;;;;23.65;18.25;;;18.30;99.90;;;;;;5038749;28;20128;-70
2023/09/11 05:26:59;;;;;;;29.33;22.58;;;18.40;99.90;;;;;;5055460;28;20126;-70
2023/09/11 05:29:25;;;;;;;31.88;23.30;;;18.40;99.90;;;;;;5055156;28;20045;-70
2023/09/11 05:31:51;;;;;;;26.02;20.13;;;18.50;99.90;;;;;;5055900;28;20080;-69
2023/09/11 05:34:17;;;;;;;28.58;22.35;;;18.40;99.90;;;;;;5038723;28;20041;-69
2023/09/11 05:36:43;;;;;;;26.42;19.70;;;18.40;99.90;;;;;;5055036;28;20041;-69
2023/09/11 05:39:08;;;;;;;23.83;17.58;;;18.40;99.90;;;;;;5038999;28;20436;-69
2023/09/11 05:41:35;;;;;;;25.38;19.60;;;18.40;99.90;;;;;;5054951;28;20045;-64
2023/09/11 05:44:01;;;;;;;29.85;20.90;;;18.50;99.90;;;;;;5056297;28;20045;-65
2023/09/11 05:46:27;;;;;;;31.25;20.65;;;18.50;99.90;;;;;;5038338;28;20127;-65
2023/09/11 05:48:53;;;;;;;32.25;21.90;;;18.60;99.90;;;;;;5038287;28;20466;-65
2023/09/11 05:51:19;;;;;;;30.73;21.33;;;18.80;99.90;;;;;;5054459;28;20048;-64
2023/09/11 05:53:45;;;;;;;31.23;20.88;;;18.80;99.90;;;;;;5054592;28;20048;-65
2023/09/11 05:56:11;;;;;;;32.22;21.98;;;18.80;99.90;;;;;;5056042;28;20268;-65
2023/09/11 05:58:37;;;;;;;32.80;21.73;;;18.80;99.90;;;;;;5055633;28;20077;-65
2023/09/11 06:01:03;;;;;;;34.58;21.00;;;18.90;99.90;;;;;;5037894;28;20045;-65
2023/09/11 06:03:31;;;;;;;27.88;20.55;;;19.00;99.90;;;;;;5054344;28;20048;-65
2023/09/11 06:05:57;;;;;;;29.40;21.05;;;19.00;99.90;;;;;;5037643;28;20174;-65
2023/09/11 06:08:23;;;;;;;29.73;20.65;;;19.10;99.90;;;;;;5054663;28;20080;-64
2023/09/11 06:10:48;;;;;;;28.67;20.75;;;19.10;99.90;;;;;;5004810;28;20091;-64
2023/09/11 06:13:14;;;;;;;27.30;20.20;;;19.20;99.90;;;;;;5037470;28;20509;-65
2023/09/11 06:15:40;;;;;;;30.40;21.90;;;19.30;99.90;;;;;;5037594;28;20488;-65
2023/09/11 06:18:06;;;;;;;33.15;21.05;;;19.50;99.90;;;;;;5054030;28;20122;-65
2023/09/11 06:20:32;;;;;;;33.05;21.17;;;19.70;99.90;;;;;;5037747;28;20047;-65
2023/09/11 06:22:57;;;;;;;26.95;19.90;;;20.00;99.90;;;;;;5055372;28;20041;-65
2023/09/11 06:25:23;;;;;;;28.50;19.10;;;20.30;99.90;;;;;;5053554;28;20052;-65
2023/09/11 06:27:49;;;;;;;30.75;17.67;;;20.60;99.90;;;;;;5037286;28;20140;-66
2023/09/11 06:30:15;;;;;;;29.42;17.92;;;20.90;99.90;;;;;;5037282;28;20049;-66
2023/09/11 06:32:41;;;;;;;30.02;16.88;;;21.20;99.90;;;;;;5053557;28;20119;-65
2023/09/11 06:35:07;;;;;;;23.35;16.13;;;21.50;99.90;;;;;;5053878;28;20516;-65
2023/09/11 06:37:33;;;;;;;24.63;15.82;;;21.90;99.90;;;;;;5053650;28;20036;-64
2023/09/11 06:39:59;;;;;;;30.88;15.95;;;22.20;99.90;;;;;;5037129;28;20044;-65
2023/09/11 06:42:25;;;;;;;26.70;15.23;;;22.80;99.90;;;;;;5037022;28;20132;-66
2023/09/11 06:44:52;;;;;;;26.77;15.68;;;23.10;99.90;;;;;;5053830;28;20041;-65
2023/09/11 06:47:18;;;;;;;24.92;14.55;;;23.30;99.90;;;;;;5053536;28;20056;-66
2023/09/11 06:49:44;;;;;;;24.17;14.75;;;23.40;99.90;;;;;;5054932;28;20095;-65
2023/09/11 06:52:10;;;;;;;26.20;14.35;;;24.00;99.90;;;;;;5036985;28;20049;-71
2023/09/11 06:54:36;;;;;;;26.40;14.18;;;24.30;99.90;;;;;;5053402;28;20048;-70
2023/09/11 06:57:01;;;;;;;23.30;13.63;;;24.40;99.90;;;;;;5053408;28;20068;-70
2023/09/11 06:59:30;;;;;;;22.95;14.02;;;24.50;99.90;;;;;;5036756;28;20044;-71
2023/09/11 07:01:56;;;;;;;31.02;14.48;;;24.60;99.90;;;;;;5020300;28;20126;-70
2023/09/11 07:04:22;;;;;;;22.60;13.85;;;24.60;99.90;;;;;;5053502;28;20072;-69
2023/09/11 07:06:48;;;;;;;25.83;13.50;;;24.70;99.90;;;;;;5036656;28;20045;-69
2023/09/11 07:09:13;;;;;;;21.75;13.10;;;25.00;99.90;;;;;;5053690;28;20381;-70
2023/09/11 07:11:39;;;;;;;23.02;12.95;;;25.30;99.90;;;;;;5053055;28;20078;-70
2023/09/11 07:14:06;;;;;;;21.85;13.25;;;25.80;99.90;;;;;;5054327;28;20083;-70
2023/09/11 07:16:32;;;;;;;25.05;13.40;;;26.10;99.90;;;;;;5054224;28;20551;-70
2023/09/11 07:18:58;;;;;;;19.92;13.05;;;26.10;99.90;;;;;;5036624;28;20493;-69
2023/09/11 07:21:24;;;;;;;23.33;14.55;;;26.40;99.90;;;;;;5053098;28;20128;-71
2023/09/11 07:23:50;;;;;;;22.00;13.38;;;26.50;99.90;;;;;;5053084;28;20045;-70
2023/09/11 07:26:16;;;;;;;20.65;13.45;;;26.40;99.90;;;;;;5052757;28;20468;-70
2023/09/11 07:29:04;;;;;;;23.05;12.60;;;26.50;99.90;;;;;;5019907;28;20385;-70
2023/09/11 07:31:34;;;;;;;22.80;12.95;;;26.40;99.90;;;;;;5052662;28;20073;-70
2023/09/11 07:33:59;;;;;;;23.13;12.80;;;26.50;99.90;;;;;;5053769;28;20061;-71
2023/09/11 07:36:27;;;;;;;22.98;13.80;;;26.50;99.90;;;;;;5052294;28;20079;-69
2023/09/11 07:38:53;;;;;;;25.50;12.95;;;26.60;99.90;;;;;;5036301;28;20033;-70
2023/09/11 07:41:20;;;;;;;23.83;12.77;;;26.50;99.90;;;;;;5053759;28;20048;-70
2023/09/11 07:43:49;;;;;;;20.52;12.73;;;26.40;99.90;;;;;;5052722;28;20044;-70
2023/09/11 07:46:19;;;;;;;23.90;13.73;;;26.30;99.90;;;;;;5052831;28;20045;-71
2023/09/11 07:48:45;;;;;;;24.60;12.75;;;26.10;99.90;;;;;;5052738;28;20095;-69
2023/09/11 07:51:12;;;;;;;22.02;13.00;;;26.20;99.90;;;;;;5035728;28;20032;-69
2023/09/11 07:53:39;;;;;;;20.80;12.02;;;26.20;99.90;;;;;;5035749;28;20049;-69
2023/09/11 07:56:06;;;;;;;21.35;12.35;;;26.10;99.90;;;;;;5052307;28;20048;-70
2023/09/11 07:58:32;;;;;;;22.08;11.25;;;25.90;99.90;;;;;;5035604;28;20045;-70
2023/09/11 08:00:58;;;;;;;19.25;11.65;;;25.90;99.90;;;;;;5053497;28;20124;-65
2023/09/11 08:03:24;;;;;;;19.05;12.02;;;25.90;99.90;;;;;;5052077;28;20095;-65
2023/09/11 08:05:50;;;;;;;20.33;11.68;;;25.70;99.90;;;;;;5052114;28;20044;-65
2023/09/11 08:08:15;;;;;;;21.52;11.20;;;25.80;99.90;;;;;;4988391;28;20140;-65
2023/09/11 08:10:41;;;;;;;18.67;11.23;;;25.80;99.90;;;;;;5009308;28;20061;-65
2023/09/11 08:13:07;;;;;;;18.75;11.15;;;25.80;99.90;;;;;;5013807;28;20529;-64
2023/09/11 08:15:33;;;;;;;19.45;10.70;;;25.90;99.90;;;;;;4995914;28;20042;-65
2023/09/11 08:17:59;;;;;;;18.58;10.48;;;25.90;99.90;;;;;;5012098;28;20046;-65
2023/09/11 08:20:24;;;;;;;20.25;9.70;;;26.10;99.90;;;;;;5012246;28;20038;-66
2023/09/11 08:22:50;;;;;;;19.63;9.35;;;26.20;99.90;;;;;;5012244;28;20049;-64
2023/09/11 08:25:16;;;;;;;19.27;9.93;;;26.40;99.90;;;;;;4995915;28;20046;-66
2023/09/11 08:27:42;;;;;;;17.88;9.15;;;26.60;99.90;;;;;;4963485;28;20049;-64
2023/09/11 08:30:08;;;;;;;14.82;9.13;;;26.70;99.90;;;;;;5003421;28;20065;-66
2023/09/11 08:32:34;;;;;;;17.33;9.05;;;27.00;99.90;;;;;;4992405;28;20046;-65
2023/09/11 08:35:03;;;;;;;18.67;8.52;;;27.20;99.90;;;;;;5012504;28;20041;-65
2023/09/11 08:37:30;;;;;;;16.75;8.85;;;27.40;99.90;;;;;;4996431;28;20048;-65
2023/09/11 08:39:56;;;;;;;15.10;8.82;;;27.60;99.90;;;;;;4976012;28;20077;-67
2023/09/11 08:42:25;;;;;;;18.77;9.68;;;27.70;99.90;;;;;;4993919;28;20128;-66
2023/09/11 08:44:51;;;;;;;19.23;9.05;;;27.80;99.90;;;;;;4960226;28;20054;-67
2023/09/11 08:47:20;;;;;;;19.45;8.93;;;27.90;99.90;;;;;;4992343;28;20050;-70
2023/09/11 08:49:53;;;;;;;15.55;8.15;;;28.00;99.90;;;;;;4980414;28;20104;-67
2023/09/11 08:52:19;;;;;;;17.02;8.52;;;28.10;99.90;;;;;;4996437;28;20565;-66
2023/09/11 08:54:55;;;;;;;14.35;8.52;;;28.20;99.90;;;;;;4997568;28;20085;-67
2023/09/11 08:57:26;;;;;;;15.55;7.90;;;28.20;99.90;;;;;;4996308;28;20042;-66
2023/09/11 08:59:56;;;;;;;15.55;7.90;;;28.40;99.90;;;;;;4999753;28;20045;-66
2023/09/11 09:02:24;;;;;;;16.02;8.30;;;28.60;99.90;;;;;;4996279;28;20038;-66
2023/09/11 09:04:51;;;;;;;16.08;7.65;;;28.80;99.90;;;;;;4997594;28;20038;-65
2023/09/11 09:07:18;;;;;;;17.25;8.10;;;29.00;99.90;;;;;;4996158;28;20046;-68
2023/09/11 09:09:44;;;;;;;15.52;8.05;;;29.10;99.90;;;;;;4996062;28;20093;-68
2023/09/11 09:12:11;;;;;;;17.17;8.07;;;29.10;99.90;;;;;;5012458;28;20191;-65
2023/09/11 09:14:38;;;;;;;14.85;8.20;;;29.10;99.90;;;;;;4997153;28;20073;-65
2023/09/11 09:17:04;;;;;;;13.32;7.78;;;29.20;99.90;;;;;;4979760;28;20042;-65
2023/09/11 09:19:31;;;;;;;17.20;7.70;;;29.20;99.90;;;;;;4995820;28;20129;-65
2023/09/11 09:22:05;;;;;;;20.13;8.23;;;29.40;99.90;;;;;;4996177;28;20046;-65
2023/09/11 09:24:46;;;;;;;15.88;7.90;;;29.50;99.90;;;;;;4995869;28;20129;-66
2023/09/11 09:27:12;;;;;;;17.80;8.32;;;29.50;99.90;;;;;;4996135;28;20531;-65
2023/09/11 09:29:39;;;;;;;17.63;8.02;;;29.60;99.90;;;;;;4996064;28;20145;-65
2023/09/11 09:32:16;;;;;;;17.30;8.20;;;29.70;99.80;;;;;;4995737;28;20161;-65
2023/09/11 09:34:54;;;;;;;18.13;8.65;;;29.80;99.50;;;;;;4995878;28;20562;-66
2023/09/11 09:37:21;;;;;;;19.08;8.75;;;29.80;99.40;;;;;;4997055;28;20085;-66
2023/09/11 09:39:50;;;;;;;14.70;8.02;;;29.90;99.10;;;;;;4995759;28;20457;-65
2023/09/11 09:42:17;;;;;;;17.60;8.50;;;29.90;98.60;;;;;;4995466;28;20082;-66
2023/09/11 09:44:55;;;;;;;18.25;7.85;;;29.90;98.60;;;;;;4995493;28;20049;-65
2023/09/11 09:47:24;;;;;;;13.73;8.10;;;29.90;98.80;;;;;;4995381;28;20125;-66
2023/09/11 09:49:57;;;;;;;17.35;8.52;;;30.00;98.80;;;;;;4979425;28;20045;-66
2023/09/11 09:52:29;;;;;;;17.42;8.27;;;30.10;98.90;;;;;;4995201;28;20042;-65
2023/09/11 09:55:02;;;;;;;18.40;7.95;;;30.10;98.10;;;;;;4995469;28;20082;-65
2023/09/11 09:57:28;;;;;;;15.38;7.38;;;30.10;98.60;;;;;;4978987;28;20034;-65
2023/09/11 09:59:57;;;;;;;14.98;7.40;;;30.10;97.20;;;;;;4994811;28;20054;-65
2023/09/11 10:02:28;;;;;;;15.55;7.25;;;30.20;97.60;;;;;;4996821;28;20486;-66
2023/09/11 10:05:04;;;;;;;14.00;6.93;;;30.20;97.30;;;;;;4995297;28;20105;-66
2023/09/11 10:07:45;;;;;;;16.67;7.13;;;30.20;96.70;;;;;;5011321;28;20057;-65
2023/09/11 10:10:24;;;;;;;15.32;7.47;;;30.30;96.90;;;;;;5011546;28;20050;-66
2023/09/11 10:13:11;;;;;;;16.60;7.70;;;30.30;96.90;;;;;;4978777;28;20035;-66
2023/09/11 10:15:39;;;;;;;15.07;7.60;;;30.40;96.30;;;;;;4996176;28;20054;-65
2023/09/11 10:18:06;;;;;;;17.20;8.30;;;30.40;96.80;;;;;;4995098;28;20053;-66
2023/09/11 10:20:33;;;;;;;21.70;8.15;;;30.40;96.90;;;;;;5011476;28;20126;-70
2023/09/11 10:23:02;;;;;;;14.40;7.10;;;30.40;97.10;;;;;;4995890;28;20057;-70
2023/09/11 10:25:29;;;;;;;14.13;7.32;;;30.50;96.60;;;;;;4994699;28;20042;-70
2023/09/11 10:28:04;;;;;;;15.77;7.40;;;30.60;95.90;;;;;;4996245;28;20058;-70
2023/09/11 10:30:52;;;;;;;15.35;7.55;;;30.60;95.00;;;;;;4994971;28;20522;-70
2023/09/11 10:33:24;;;;;;;14.13;7.50;;;30.60;95.20;;;;;;4995757;28;20050;-70
2023/09/11 10:35:57;;;;;;;16.20;8.35;;;30.60;94.50;;;;;;4995702;28;20113;-69
2023/09/11 10:38:25;;;;;;;18.17;9.02;;;30.50;94.70;;;;;;4994539;28;20038;-70
2023/09/11 10:40:53;;;;;;;14.13;9.25;;;30.40;95.10;;;;;;4994658;28;20443;-70
2023/09/11 10:43:19;;;;;;;15.35;9.93;;;30.20;94.40;;;;;;5010982;28;20414;-70
2023/09/11 10:45:49;;;;;;;16.00;9.10;;;30.00;94.70;;;;;;4994483;28;20085;-70
2023/09/11 10:48:32;;;;;;;12.82;9.18;;;29.90;95.00;;;;;;4994291;28;20077;-70
2023/09/11 10:50:59;;;;;;;14.93;8.98;;;29.90;95.40;;;;;;4994522;28;20395;-70
2023/09/11 10:53:30;;;;;;;13.27;8.70;;;29.90;96.30;;;;;;4994134;28;20566;-69
2023/09/11 10:55:59;;;;;;;15.45;9.00;;;30.00;96.30;;;;;;4994580;28;20038;-69
2023/09/11 10:58:28;;;;;;;14.27;8.40;;;30.00;96.10;;;;;;4994159;28;20049;-69
2023/09/11 11:00:54;;;;;;;15.43;8.50;;;30.10;96.20;;;;;;4994230;28;20050;-70
2023/09/11 11:03:23;;;;;;;14.13;8.80;;;30.10;95.60;;;;;;4978066;28;20473;-70
2023/09/11 11:05:51;;;;;;;14.80;8.20;;;30.10;95.50;;;;;;4978261;28;20076;-69
2023/09/11 11:08:17;;;;;;;15.45;8.20;;;30.20;95.60;;;;;;4995176;28;20078;-70
2023/09/11 11:10:47;;;;;;;14.25;8.60;;;30.20;95.80;;;;;;4961347;28;20042;-70
2023/09/11 11:13:13;;;;;;;15.45;7.65;;;30.10;95.40;;;;;;4977032;28;20109;-70
2023/09/11 11:15:39;;;;;;;12.35;7.45;;;30.10;94.90;;;;;;4993681;28;20046;-70
2023/09/11 11:18:14;;;;;;;17.60;8.10;;;30.10;94.90;;;;;;4977667;28;20453;-70
2023/09/11 11:21:04;;;;;;;11.52;6.82;;;30.10;94.30;;;;;;4993662;28;20038;-69
2023/09/11 11:23:31;;;;;;;12.98;6.97;;;30.10;94.30;;;;;;4993821;28;20053;-69
2023/09/11 11:26:03;;;;;;;12.82;7.47;;;30.20;94.80;;;;;;5010212;28;20050;-70
2023/09/11 11:28:41;;;;;;;12.80;7.43;;;30.20;94.60;;;;;;4977351;28;20050;-71
2023/09/11 11:31:08;;;;;;;13.32;7.50;;;30.20;94.40;;;;;;4993848;28;20050;-65
2023/09/11 11:33:37;;;;;;;13.65;7.68;;;30.20;94.60;;;;;;4977111;28;20054;-64
2023/09/11 11:36:06;;;;;;;14.75;7.95;;;30.40;94.50;;;;;;4977205;28;20053;-65
2023/09/11 11:38:33;;;;;;;13.48;8.63;;;30.40;94.50;;;;;;4977650;28;20498;-66
2023/09/11 11:41:12;;;;;;;13.38;8.38;;;30.40;94.50;;;;;;4977427;28;20487;-66
2023/09/11 11:43:40;;;;;;;13.05;7.95;;;30.40;94.70;;;;;;4993548;28;20134;-66
2023/09/11 11:46:06;;;;;;;14.45;8.15;;;30.20;94.80;;;;;;4994374;28;20093;-65
2023/09/11 11:48:39;;;;;;;13.60;8.23;;;30.30;95.20;;;;;;5010073;28;20061;-66
2023/09/11 11:51:05;;;;;;;14.77;8.48;;;30.30;95.50;;;;;;4993342;28;20057;-66
2023/09/11 11:53:39;;;;;;;13.63;8.38;;;30.30;95.00;;;;;;4976897;28;20050;-65
2023/09/11 11:56:05;;;;;;;12.75;8.02;;;30.30;95.10;;;;;;5009702;28;20077;-65
2023/09/11 11:58:31;;;;;;;13.10;7.80;;;30.40;94.20;;;;;;4960804;28;20042;-65
2023/09/11 12:01:02;;;;;;;13.52;8.00;;;30.20;94.10;;;;;;4976810;28;20050;-65
2023/09/11 12:03:35;;;;;;;11.45;7.72;;;30.20;94.10;;;;;;4993281;28;20510;-65
2023/09/11 12:06:02;;;;;;;13.55;8.15;;;30.20;94.90;;;;;;4960999;28;20085;-65
2023/09/11 12:08:29;;;;;;;12.13;8.40;;;30.20;94.50;;;;;;4992839;28;20137;-66
2023/09/11 12:10:55;;;;;;;13.13;7.88;;;30.30;94.50;;;;;;4992817;28;20073;-66
2023/09/11 12:13:23;;;;;;;12.32;7.45;;;30.30;94.50;;;;;;5009121;28;20454;-66
2023/09/11 12:15:54;;;;;;;12.93;7.85;;;30.20;94.30;;;;;;4994339;28;20487;-66
2023/09/11 12:18:23;;;;;;;12.80;7.32;;;30.20;94.10;;;;;;4992813;28;20502;-65
2023/09/11 12:21:01;;;;;;;15.93;7.50;;;30.10;94.50;;;;;;4992826;28;20497;-65
2023/09/11 12:23:27;;;;;;;11.93;7.40;;;30.20;94.60;;;;;;4992704;28;20484;-65
2023/09/11 12:25:53;;;;;;;12.57;7.70;;;30.20;94.10;;;;;;4992698;28;20109;-65
2023/09/11 12:28:22;;;;;;;13.52;7.97;;;30.30;94.30;;;;;;4992733;28;20085;-65
2023/09/11 12:30:48;;;;;;;13.68;7.78;;;30.30;94.90;;;;;;4992724;28;20042;-65
2023/09/11 12:33:42;;;;;;;13.25;7.03;;;30.30;93.50;;;;;;4976290;28;20395;-65
2023/09/11 12:36:08;;;;;;;13.40;7.07;;;30.30;93.80;;;;;;4991538;28;20080;-65